Current | Forecast
Updated: 10:00 AM JST on February 26, 2018
Observed at Kagoshima Airport, Japan
Temperature 50°F
Humidity 87%
Dew Point 46°F
Wind NNE at 5 mph
Pressure 30.15 in (Steady)
Conditions Partly Cloudy
Visibility 6.2 miles
UV 5 out of 16
Clouds (FEW) : 1500 ft
Yesterday's Maximum 48°F
Yesterday's Minimum 45°F approx.
Yesterday's Heating Degree Days 19 approx.
Sunrise6:48 AM JST
Sunset6:11 PM JST
Moon Rise2:08 PM JST
Moon Set3:26 AM JST
Moon PhaseMoon Phase
Waxing Gibbous
Raw METARMETAR RJFK 260100Z 02004KT 330V080 9999 FEW015 10/08 Q1021 RMK 1CU015 A3016


Monday
. High: 71° F.
Tuesday
. High: 77° F.
Wednesday
. High: 77° F.
Thursday
. High: 75° F.
Friday
. High: 68° F.
Saturday
. High: 80° F.
Sunday
. High: 80° F.
Monday
. High: 80° F.

Units: English | Metric

Find the Weather for any City, State or Zipcode, or Country:

U.S. State List | Severe Weather | Tropical Storms | Ski Conditions
United States | Canada | Central America | South America | Asia | Europe | Australia | Africa | Islands

Weather Underground

© Copyright 2018
The Weather Company, LLC